Time;durP1;ratioP1;P1;durP2;ratioP2;P2;SDS_P1;SDS_P2;PMS_P1;PMS_P2;Temp;Humidity;BMP_temperature;BMP_pressure;BME280_temperature;BME280_humidity;BME280_pressure;Samples;Min_cycle;Max_cycle;Signal;HPM_P1;HPM_P2
2023/05/16 00:00:47;;;;;;;29.83;16.40;;;;;;;12.92;100.00;99548.63;12197217;19;20007;-83
2023/05/16 00:04:49;;;;;;;27.58;15.73;;;;;;;12.84;100.00;99535.31;12219357;19;20033;-82
2023/05/16 00:08:51;;;;;;;38.60;19.63;;;;;;;12.76;100.00;99539.44;12216312;19;20010;-81
2023/05/16 00:12:53;;;;;;;41.67;20.02;;;;;;;12.69;100.00;99545.22;12197916;19;20018;-83
2023/05/16 00:16:57;;;;;;;30.80;17.40;;;;;;;12.61;100.00;99536.59;12214227;19;20467;-83
2023/05/16 00:21:00;;;;;;;35.50;19.02;;;;;;;12.54;100.00;99534.91;12220183;19;20006;-83
2023/05/16 00:25:02;;;;;;;41.95;22.20;;;;;;;12.47;100.00;99536.28;12193336;19;20386;-82
2023/05/16 00:29:05;;;;;;;36.78;19.67;;;;;;;12.40;100.00;99532.91;12220592;19;20006;-83
2023/05/16 00:33:07;;;;;;;35.08;18.60;;;;;;;12.34;100.00;99534.00;12214997;19;20023;-80
2023/05/16 00:37:09;;;;;;;39.65;21.70;;;;;;;12.25;100.00;99540.00;12193527;19;20045;-81
2023/05/16 00:41:11;;;;;;;39.47;21.27;;;;;;;12.21;100.00;99543.59;12218432;19;20018;-81
2023/05/16 00:45:13;;;;;;;42.38;20.35;;;;;;;12.21;100.00;99546.34;12215665;19;20081;-82
2023/05/16 00:49:14;;;;;;;34.50;18.50;;;;;;;12.22;100.00;99546.06;12194483;19;20014;-82
2023/05/16 00:53:17;;;;;;;43.60;23.67;;;;;;;12.25;100.00;99540.00;12213751;19;20003;-83
2023/05/16 00:57:19;;;;;;;39.95;21.70;;;;;;;12.23;100.00;99546.94;12213602;19;20007;-83
2023/05/16 01:01:23;;;;;;;36.00;19.40;;;;;;;12.25;100.00;99542.78;12193023;19;20010;-83
2023/05/16 01:05:28;;;;;;;40.25;22.27;;;;;;;12.29;100.00;99551.38;12216759;19;20070;-82
2023/05/16 01:09:30;;;;;;;49.25;24.02;;;;;;;12.28;100.00;99544.19;12216907;19;20463;-83
2023/05/16 01:13:43;;;;;;;42.65;22.40;;;;;;;12.27;100.00;99548.88;12191275;19;20031;-82
2023/05/16 01:18:05;;;;;;;42.67;22.33;;;;;;;12.30;100.00;99553.88;12215632;19;20022;-83
2023/05/16 01:22:30;;;;;;;47.05;23.90;;;;;;;12.34;100.00;99548.63;12197706;19;20055;-83
2023/05/16 01:26:33;;;;;;;47.38;24.40;;;;;;;12.37;100.00;99544.50;12217826;19;20046;-84
2023/05/16 01:30:38;;;;;;;46.28;25.20;;;;;;;12.36;100.00;99551.97;12203785;19;20006;-83
2023/05/16 01:34:41;;;;;;;47.17;25.70;;;;;;;12.37;100.00;99547.25;12217053;19;20014;-82
2023/05/16 01:39:02;;;;;;;43.65;23.58;;;;;;;12.40;100.00;99546.72;12204780;19;20038;-81
2023/05/16 01:43:10;;;;;;;45.50;24.52;;;;;;;12.44;100.00;99554.22;12190235;19;20535;-83
2023/05/16 01:47:13;;;;;;;42.67;23.35;;;;;;;12.44;100.00;99559.75;12213095;19;20006;-83
2023/05/16 01:51:15;;;;;;;42.63;23.42;;;;;;;12.49;100.00;99556.16;12216711;19;20027;-83
2023/05/16 01:55:50;;;;;;;41.58;22.77;;;;;;;12.55;100.00;99549.56;12195131;19;20014;-82
2023/05/16 01:59:52;;;;;;;48.80;23.98;;;;;;;12.54;100.00;99553.44;12215806;19;20010;-82
2023/05/16 02:03:57;;;;;;;43.60;23.42;;;;;;;12.55;100.00;99555.09;12193299;19;20022;-83
2023/05/16 02:08:00;;;;;;;42.30;23.60;;;;;;;12.57;100.00;99560.38;12216456;19;20018;-83
2023/05/16 02:12:01;;;;;;;41.03;22.42;;;;;;;12.53;100.00;99560.91;12216046;19;20345;-82
2023/05/16 02:16:04;;;;;;;44.37;23.43;;;;;;;12.45;100.00;99555.88;12193684;19;20007;-81
2023/05/16 02:20:08;;;;;;;40.30;24.33;;;;;;;12.40;100.00;99563.31;12217045;19;20011;-81
2023/05/16 02:24:10;;;;;;;42.15;23.45;;;;;;;12.36;100.00;99567.72;12233527;19;20091;-81
2023/05/16 02:28:12;;;;;;;44.22;24.55;;;;;;;12.35;100.00;99566.06;12216197;19;20011;-82
2023/05/16 02:32:13;;;;;;;41.05;23.45;;;;;;;12.31;100.00;99566.59;12225570;19;20018;-82
2023/05/16 02:36:15;;;;;;;43.38;24.30;;;;;;;12.25;100.00;99562.13;12213305;19;20855;-81
2023/05/16 02:40:17;;;;;;;40.67;22.13;;;;;;;12.20;100.00;99569.56;12191148;19;20014;-80
2023/05/16 02:44:19;;;;;;;44.20;24.23;;;;;;;12.13;100.00;99567.00;12213201;19;20051;-81
2023/05/16 02:48:20;;;;;;;43.47;23.15;;;;;;;12.00;100.00;99560.03;12214557;19;20010;-82
2023/05/16 02:52:22;;;;;;;40.97;23.20;;;;;;;11.91;100.00;99555.28;12187612;19;20014;-82
2023/05/16 02:56:25;;;;;;;42.33;22.92;;;;;;;11.82;100.00;99561.25;12206679;19;20466;-81
2023/05/16 03:00:26;;;;;;;44.75;24.77;;;;;;;11.82;100.00;99568.69;12210689;19;20026;-82
2023/05/16 03:04:28;;;;;;;44.72;22.83;;;;;;;11.77;100.00;99575.00;12188168;19;20007;-80
2023/05/16 03:08:30;;;;;;;41.65;22.20;;;;;;;11.78;100.00;99567.56;12209987;19;20003;-80
2023/05/16 03:12:32;;;;;;;39.15;22.02;;;;;;;11.71;100.00;99572.47;12210294;19;20049;-81
2023/05/16 03:16:35;;;;;;;39.67;22.07;;;;;;;11.66;100.00;99581.56;12187513;19;20015;-82
2023/05/16 03:20:37;;;;;;;39.03;22.77;;;;;;;11.57;100.00;99583.09;12210218;19;20263;-82
2023/05/16 03:24:39;;;;;;;41.85;22.08;;;;;;;11.47;100.00;99578.31;12199227;19;20779;-81
2023/05/16 03:28:41;;;;;;;43.88;21.73;;;;;;;11.37;100.00;99590.09;12224630;19;20017;-81
2023/05/16 03:32:44;;;;;;;41.78;22.90;;;;;;;11.28;100.00;99588.06;12221023;19;20014;-82
2023/05/16 03:36:48;;;;;;;42.92;22.50;;;;;;;11.22;100.00;99594.63;12198750;19;20376;-81
2023/05/16 03:40:50;;;;;;;43.20;21.95;;;;;;;11.16;100.00;99590.97;12217416;19;20059;-82
2023/05/16 03:44:51;;;;;;;49.35;24.27;;;;;;;11.09;100.00;99593.09;12220061;19;20459;-81
2023/05/16 03:48:53;;;;;;;42.83;23.23;;;;;;;10.93;100.00;99592.09;12200481;19;20017;-81
2023/05/16 03:52:55;;;;;;;41.38;22.23;;;;;;;10.81;100.00;99594.97;12221115;19;20484;-81
2023/05/16 03:56:57;;;;;;;46.58;23.42;;;;;;;10.73;100.00;99601.75;12220946;19;20014;-82
2023/05/16 04:00:58;;;;;;;45.97;22.80;;;;;;;10.68;100.00;99603.66;12204721;19;20061;-80
2023/05/16 04:05:00;;;;;;;43.27;22.90;;;;;;;10.62;100.00;99599.13;12221130;19;20107;-80
2023/05/16 04:09:03;;;;;;;48.38;22.40;;;;;;;10.60;100.00;99604.09;12219758;19;20007;-82
2023/05/16 04:13:05;;;;;;;47.37;22.40;;;;;;;10.57;100.00;99601.84;12197017;19;20034;-83
2023/05/16 04:17:07;;;;;;;46.50;21.60;;;;;;;10.55;100.00;99604.00;12217105;19;20712;-81
2023/05/16 04:21:13;;;;;;;46.10;21.13;;;;;;;10.55;100.00;99620.53;12221097;19;20007;-81
2023/05/16 04:25:16;;;;;;;46.20;21.80;;;;;;;10.60;100.00;99620.63;12196610;19;20265;-81
2023/05/16 04:29:17;;;;;;;48.00;21.73;;;;;;;10.56;100.00;99616.69;12218369;19;20007;-81
2023/05/16 04:33:19;;;;;;;42.75;21.90;;;;;;;10.54;100.00;99616.94;12217615;19;20031;-81
2023/05/16 04:37:21;;;;;;;47.63;23.13;;;;;;;10.55;100.00;99620.53;12196170;19;20011;-82
2023/05/16 04:41:22;;;;;;;42.53;21.23;;;;;;;10.60;100.00;99618.69;12214938;19;20022;-82
2023/05/16 04:45:25;;;;;;;41.77;21.43;;;;;;;10.67;100.00;99622.06;12214502;19;20517;-81
2023/05/16 04:49:27;;;;;;;40.65;20.38;;;;;;;10.86;100.00;99633.66;12196955;19;20751;-82
2023/05/16 04:53:30;;;;;;;42.20;19.65;;;;;;;11.03;100.00;99632.72;12217148;19;20011;-81
2023/05/16 04:57:31;;;;;;;51.47;21.95;;;;;;;11.15;100.00;99637.03;12213610;19;20010;-82
2023/05/16 05:01:33;;;;;;;35.72;19.02;;;;;;;11.33;100.00;99638.63;12194997;19;20657;-82
2023/05/16 05:05:35;;;;;;;33.72;18.38;;;;;;;11.50;100.00;99644.03;12215514;19;20006;-81
2023/05/16 05:09:37;;;;;;;25.63;12.67;;;;;;;11.63;100.00;99653.84;12197521;19;20013;-81
2023/05/16 05:13:39;;;;;;;32.92;16.83;;;;;;;11.73;100.00;99653.91;12217351;19;20271;-81
2023/05/16 05:17:40;;;;;;;29.77;15.10;;;;;;;11.82;100.00;99654.28;12215371;19;20007;-81
2023/05/16 05:21:42;;;;;;;23.85;12.32;;;;;;;11.94;100.00;99662.44;12198734;19;20022;-81
2023/05/16 05:25:45;;;;;;;21.07;11.03;;;;;;;12.05;100.00;99666.94;12216619;19;20011;-82
2023/05/16 05:29:46;;;;;;;23.20;11.52;;;;;;;12.14;100.00;99662.59;12218008;19;20078;-81
2023/05/16 05:33:48;;;;;;;16.48;8.50;;;;;;;12.34;100.00;99659.16;12206987;19;20038;-81
2023/05/16 05:37:54;;;;;;;20.88;7.78;;;;;;;12.37;100.00;99663.31;12229713;19;20007;-82
2023/05/16 05:41:57;;;;;;;9.07;5.23;;;;;;;12.46;100.00;99668.09;12241542;19;20086;-80
2023/05/16 05:45:59;;;;;;;;;;;;;;;12.46;100.00;99670.88;12206256;19;20018;-81
2023/05/16 05:50:03;;;;;;;7.00;4.10;;;;;;;12.66;100.00;99666.56;12213042;19;20277;-80
2023/05/16 05:54:06;;;;;;;8.13;3.95;;;;;;;12.77;100.00;99668.28;12210261;19;20030;-82
2023/05/16 05:58:09;;;;;;;6.63;3.83;;;;;;;12.79;100.00;99674.41;12166475;19;20014;-82
2023/05/16 06:02:11;;;;;;;5.43;2.97;;;;;;;12.69;100.00;99677.91;12214622;19;20014;-82
2023/05/16 06:06:16;;;;;;;5.55;2.60;;;;;;;12.59;100.00;99688.91;12214621;19;20006;-80
2023/05/16 06:10:18;;;;;;;4.43;2.33;;;;;;;12.56;100.00;99686.69;12195154;19;20077;-80
2023/05/16 06:14:22;;;;;;;3.72;2.38;;;;;;;12.48;100.00;99692.69;12216877;19;20006;-80
2023/05/16 06:18:24;;;;;;;5.50;2.53;;;;;;;12.42;100.00;99702.88;12219325;19;20006;-82
2023/05/16 06:22:27;;;;;;;5.63;2.65;;;;;;;12.41;100.00;99698.47;12213186;19;20082;-81
2023/05/16 06:26:29;;;;;;;5.78;2.97;;;;;;;12.41;100.00;99705.91;12221997;19;20018;-82
2023/05/16 06:30:32;;;;;;;6.75;2.95;;;;;;;12.39;100.00;99711.69;12223741;19;20034;-81
2023/05/16 06:34:34;;;;;;;5.00;2.73;;;;;;;12.41;100.00;99711.44;12208023;19;20002;-81
2023/05/16 06:38:39;;;;;;;5.00;2.40;;;;;;;12.26;100.00;99718.50;12228013;19;20062;-79
2023/05/16 06:42:43;;;;;;;6.25;3.30;;;;;;;12.20;100.00;99719.56;12200340;19;20027;-81
2023/05/16 06:46:46;;;;;;;4.65;2.78;;;;;;;12.20;100.00;99729.78;12222685;19;20006;-80
2023/05/16 06:50:50;;;;;;;4.22;2.38;;;;;;;12.11;100.00;99728.59;12223040;19;20013;-82
2023/05/16 06:54:52;;;;;;;5.13;2.38;;;;;;;12.20;100.00;99730.59;12201035;19;20470;-81
2023/05/16 06:58:55;;;;;;;3.05;1.55;;;;;;;12.11;100.00;99743.25;12224179;19;20014;-81
2023/05/16 07:02:58;;;;;;;2.28;1.27;;;;;;;12.15;100.00;99743.53;12221038;19;20017;-81
2023/05/16 07:07:00;;;;;;;2.07;1.07;;;;;;;12.00;100.00;99758.03;12202509;19;20044;-80
2023/05/16 07:11:05;;;;;;;1.70;1.02;;;;;;;11.92;100.00;99758.50;12228696;19;20049;-80
2023/05/16 07:15:11;;;;;;;3.10;1.30;;;;;;;11.88;100.00;99768.41;12227469;19;20476;-80
2023/05/16 07:19:13;;;;;;;2.50;1.45;;;;;;;11.88;100.00;99773.91;12193797;19;20027;-80
2023/05/16 07:23:15;;;;;;;4.55;1.77;;;;;;;11.80;100.00;99776.00;12211389;19;20007;-80
2023/05/16 07:27:20;;;;;;;2.65;1.42;;;;;;;11.76;100.00;99776.78;12230151;19;20015;-80
2023/05/16 07:31:30;;;;;;;3.70;1.50;;;;;;;11.74;100.00;99788.06;12206366;19;20033;-81
2023/05/16 07:35:32;;;;;;;1.98;1.40;;;;;;;11.67;100.00;99803.19;12224880;19;20070;-79
2023/05/16 07:39:35;;;;;;;;;;;;;;;11.59;100.00;99807.22;12222331;19;20026;-80
2023/05/16 07:43:36;;;;;;;3.13;1.20;;;;;;;11.56;100.00;99796.69;12221280;19;19914;-81
2023/05/16 07:47:38;;;;;;;4.20;1.50;;;;;;;11.61;100.00;99802.28;12230858;19;20066;-82
2023/05/16 07:51:40;;;;;;;4.38;1.60;;;;;;;11.55;100.00;99808.84;12208841;19;20555;-81
2023/05/16 07:55:47;;;;;;;5.85;2.00;;;;;;;11.61;100.00;99810.56;12211746;19;20034;-81
2023/05/16 07:59:50;;;;;;;2.80;1.65;;;;;;;11.66;100.00;99813.41;12211833;19;20014;-81
2023/05/16 08:03:53;;;;;;;3.05;1.70;;;;;;;11.65;100.00;99825.50;12205981;19;20104;-79
2023/05/16 08:07:55;;;;;;;3.88;1.52;;;;;;;11.69;100.00;99818.41;12229511;19;20010;-80
2023/05/16 08:11:56;;;;;;;2.40;1.50;;;;;;;11.71;100.00;99821.72;12228738;19;20809;-80
2023/05/16 08:16:00;;;;;;;3.30;1.65;;;;;;;11.79;100.00;99834.25;12204969;19;20018;-81
2023/05/16 08:20:03;;;;;;;3.13;1.83;;;;;;;11.84;100.00;99839.84;12219038;19;20014;-81
2023/05/16 08:24:06;;;;;;;4.80;1.50;;;;;;;11.83;100.00;99847.25;12220508;19;20364;-81
2023/05/16 08:28:08;;;;;;;4.57;1.70;;;;;;;11.71;100.00;99849.31;12202709;19;20364;-82
2023/05/16 08:32:11;;;;;;;2.47;1.10;;;;;;;11.48;100.00;99853.19;12226887;19;20271;-83
2023/05/16 08:36:14;;;;;;;2.10;1.00;;;;;;;11.32;100.00;99854.88;12226798;19;20021;-84
2023/05/16 08:40:18;;;;;;;0.88;0.60;;;;;;;11.01;100.00;99861.03;12202775;19;20038;-82
2023/05/16 08:44:21;;;;;;;1.80;0.90;;;;;;;10.77;100.00;99866.69;12226702;19;20029;-85
2023/05/16 08:48:27;;;;;;;2.53;0.88;;;;;;;10.77;100.00;99882.38;12229766;19;20347;-82
2023/05/16 08:52:32;;;;;;;3.78;0.68;;;;;;;10.70;100.00;99877.03;12205330;19;20006;-85
2023/05/16 08:56:37;;;;;;;0.73;0.50;;;;;;;10.68;100.00;99873.72;12220948;19;20038;-85
2023/05/16 09:00:39;;;;;;;0.90;0.70;;;;;;;10.87;100.00;99872.38;12199501;19;20673;-85
2023/05/16 09:04:42;;;;;;;1.42;0.90;;;;;;;11.10;100.00;99879.66;12220561;19;20524;-81
2023/05/16 09:08:44;;;;;;;1.20;0.70;;;;;;;11.28;100.00;99889.56;12222648;19;20436;-83
2023/05/16 09:12:47;;;;;;;1.65;0.80;;;;;;;11.61;100.00;99877.63;12198946;19;20003;-83
2023/05/16 09:17:06;;;;;;;3.15;1.20;;;;;;;12.12;100.00;99879.41;12220212;19;20669;-83
2023/05/16 09:21:15;;;;;;;2.35;1.08;;;;;;;12.44;100.00;99883.09;12217630;19;20376;-83
2023/05/16 09:25:18;;;;;;;1.85;1.10;;;;;;;12.93;100.00;99882.16;12198894;19;20015;-84
2023/05/16 09:29:33;;;;;;;1.52;1.00;;;;;;;13.32;100.00;99882.75;12224631;19;20540;-83
2023/05/16 09:33:41;;;;;;;2.00;1.00;;;;;;;13.39;100.00;99885.31;12199176;19;20006;-85
2023/05/16 09:37:45;;;;;;;3.20;1.20;;;;;;;13.24;100.00;99872.19;12219094;19;20038;-83
2023/05/16 09:41:51;;;;;;;5.07;1.10;;;;;;;13.23;100.00;99879.63;12224317;19;20003;-85
2023/05/16 09:45:54;;;;;;;2.08;1.10;;;;;;;13.09;100.00;99892.25;12199397;19;20074;-83
2023/05/16 09:49:56;;;;;;;2.25;1.30;;;;;;;12.83;100.00;99893.13;12223266;19;20007;-84
2023/05/16 09:53:59;;;;;;;2.67;1.23;;;;;;;12.96;100.00;99890.75;12224008;19;20015;-83
2023/05/16 09:58:03;;;;;;;4.15;1.20;;;;;;;12.95;100.00;99899.31;12200083;19;20397;-83
2023/05/16 10:02:06;;;;;;;4.45;1.30;;;;;;;13.13;100.00;99903.63;12220193;19;20498;-84
2023/05/16 10:06:09;;;;;;;3.07;1.20;;;;;;;13.23;100.00;99903.69;12219928;19;20006;-83
2023/05/16 10:10:15;;;;;;;2.55;1.13;;;;;;;13.40;100.00;99898.03;12195375;19;20380;-84
2023/05/16 10:14:18;;;;;;;5.53;1.67;;;;;;;13.41;100.00;99903.31;12216178;19;20025;-78
2023/05/16 10:18:20;;;;;;;;;;;;;;;13.66;100.00;99891.56;12232770;19;20010;-84
2023/05/16 10:22:23;;;;;;;3.80;1.25;;;;;;;14.11;100.00;99901.19;12198125;19;19907;-82
2023/05/16 10:26:26;;;;;;;2.58;1.27;;;;;;;14.16;100.00;99905.94;12222571;19;20010;-82
2023/05/16 10:30:33;;;;;;;2.65;1.23;;;;;;;13.99;100.00;99903.38;12219227;19;20134;-81
2023/05/16 10:34:38;;;;;;;2.70;1.63;;;;;;;13.77;100.00;99911.84;12199259;19;20006;-83
2023/05/16 10:38:42;;;;;;;3.03;1.30;;;;;;;13.69;95.20;99901.28;12219923;19;20013;-80
2023/05/16 10:42:57;;;;;;;3.05;1.40;;;;;;;13.58;100.00;99910.63;12203660;19;20033;-82
2023/05/16 10:47:00;;;;;;;2.75;1.40;;;;;;;13.68;98.16;99911.53;12220546;19;20006;-83
2023/05/16 10:51:33;;;;;;;3.03;1.27;;;;;;;13.59;100.00;99909.50;12220460;19;20003;-83
2023/05/16 10:55:35;;;;;;;5.25;1.50;;;;;;;13.66;99.96;99922.03;12198506;19;20029;-82
2023/05/16 10:59:44;;;;;;;2.67;1.17;;;;;;;13.53;95.75;99914.16;12217185;19;20018;-81
2023/05/16 11:03:55;;;;;;;3.53;1.45;;;;;;;13.44;97.10;99916.63;12197885;19;20018;-81
2023/05/16 11:08:07;;;;;;;2.80;1.40;;;;;;;13.58;95.86;99918.91;12215563;19;20006;-81
2023/05/16 11:12:09;;;;;;;4.17;1.17;;;;;;;13.59;92.27;99923.34;12213628;19;20015;-81
2023/05/16 11:16:33;;;;;;;4.95;1.80;;;;;;;13.68;93.20;99930.91;12186660;19;20017;-82
2023/05/16 11:20:37;;;;;;;6.60;1.67;;;;;;;13.74;93.93;99929.00;12214924;19;20522;-81
2023/05/16 11:24:48;;;;;;;4.97;1.80;;;;;;;13.98;88.66;99925.78;12191967;19;20703;-83
2023/05/16 11:28:52;;;;;;;8.33;2.23;;;;;;;14.01;85.96;99937.19;12217327;19;20015;-82
2023/05/16 11:32:54;;;;;;;6.95;1.90;;;;;;;14.51;77.21;99927.41;12217266;19;20010;-82
2023/05/16 11:36:57;;;;;;;5.18;1.85;;;;;;;14.49;77.99;99932.38;12196957;19;20475;-82
2023/05/16 11:41:07;;;;;;;3.00;1.70;;;;;;;14.53;79.69;99924.38;12219034;19;20018;-83
2023/05/16 11:45:11;;;;;;;5.10;1.83;;;;;;;14.40;80.89;99924.88;12232387;19;20018;-81
2023/05/16 11:49:16;;;;;;;8.55;1.90;;;;;;;14.48;81.71;99930.69;12213580;19;20017;-79
2023/05/16 11:53:21;;;;;;;5.22;2.15;;;;;;;14.77;73.19;99924.69;12233809;19;20022;-82
2023/05/16 11:57:23;;;;;;;7.32;2.10;;;;;;;14.62;75.28;99942.13;12238892;19;20483;-78
2023/05/16 12:01:36;;;;;;;6.05;2.63;;;;;;;14.84;70.78;99928.03;12224755;19;20015;-81
2023/05/16 12:05:50;;;;;;;7.38;2.00;;;;;;;14.75;73.50;99938.00;12224881;19;20010;-82
2023/05/16 12:09:52;;;;;;;6.55;2.00;;;;;;;15.02;72.26;99934.97;12199123;19;20010;-79
2023/05/16 12:13:55;;;;;;;8.20;2.28;;;;;;;15.27;70.57;99937.78;12214703;19;20555;-79
2023/05/16 12:18:01;;;;;;;6.47;1.98;;;;;;;15.58;70.19;99942.47;12219542;19;20349;-81
2023/05/16 12:22:03;;;;;;;6.50;1.58;;;;;;;16.56;63.62;99952.19;12201313;19;20074;-79
2023/05/16 12:26:05;;;;;;;5.22;1.60;;;;;;;16.96;52.91;99953.94;12217924;19;20349;-78
2023/05/16 12:30:11;;;;;;;4.18;1.50;;;;;;;17.68;52.71;99948.59;12223499;19;20018;-82
2023/05/16 12:34:20;;;;;;;4.38;1.58;;;;;;;18.70;49.22;99942.97;12197208;19;20020;-80
2023/05/16 12:38:25;;;;;;;4.85;2.05;;;;;;;18.79;47.40;99947.59;12223024;19;20046;-81
2023/05/16 12:42:28;;;;;;;11.15;2.17;;;;;;;18.31;46.97;99944.03;12227310;19;20482;-81
2023/05/16 12:46:30;;;;;;;;;;;;;;;18.19;48.84;99942.50;12208140;19;20011;-81
2023/05/16 12:50:33;;;;;;;6.45;1.50;;;;;;;18.91;50.29;99944.34;12221667;19;19911;-80
2023/05/16 12:54:35;;;;;;;4.85;1.30;;;;;;;18.63;47.33;99941.38;12213712;19;20010;-78
2023/05/16 12:58:38;;;;;;;8.13;2.22;;;;;;;18.65;48.71;99944.72;12221510;19;20019;-80
2023/05/16 13:02:41;;;;;;;5.40;1.25;;;;;;;20.14;47.47;99937.50;12233546;19;20002;-81
2023/05/16 13:06:45;;;;;;;4.35;1.40;;;;;;;21.97;42.49;99930.66;12194956;19;20014;-79
2023/05/16 13:11:00;;;;;;;8.23;2.78;;;;;;;22.65;38.36;99932.06;12223418;19;20074;-80
2023/05/16 13:15:03;;;;;;;6.97;1.70;;;;;;;23.79;37.46;99930.88;12212895;19;20014;-79
2023/05/16 13:19:05;;;;;;;5.28;1.52;;;;;;;24.36;33.64;99926.03;12202304;19;20010;-80
2023/05/16 13:23:08;;;;;;;8.30;1.50;;;;;;;24.96;33.99;99933.31;12221784;19;20082;-80
2023/05/16 13:27:16;;;;;;;7.45;2.53;;;;;;;25.17;32.48;99917.22;12226016;19;20073;-79
2023/05/16 13:31:18;;;;;;;5.88;1.52;;;;;;;25.97;30.13;99913.28;12179575;19;20011;-81
2023/05/16 13:35:23;;;;;;;4.18;1.42;;;;;;;24.88;31.41;99923.72;12223731;19;20014;-81
2023/05/16 13:39:27;;;;;;;6.35;1.40;;;;;;;23.07;33.03;99924.03;12220364;19;20010;-80
2023/05/16 13:43:30;;;;;;;5.35;1.23;;;;;;;24.69;28.58;99921.38;12199695;19;20341;-81
2023/05/16 13:47:33;;;;;;;5.00;1.00;;;;;;;25.72;29.49;99918.00;12231120;19;20007;-83
2023/05/16 13:51:35;;;;;;;4.40;1.38;;;;;;;25.26;28.15;99922.78;12216274;19;20006;-80
2023/05/16 13:55:38;;;;;;;8.60;1.73;;;;;;;23.45;30.49;99923.34;12220530;19;20060;-78
2023/05/16 13:59:40;;;;;;;4.32;1.10;;;;;;;24.36;29.99;99912.75;12220775;19;20117;-80
2023/05/16 14:03:45;;;;;;;5.80;1.02;;;;;;;26.31;26.18;99917.63;12198919;19;20011;-80
2023/05/16 14:07:47;;;;;;;3.55;1.10;;;;;;;27.29;24.34;99921.50;12220935;19;20022;-79
2023/05/16 14:11:49;;;;;;;6.45;1.83;;;;;;;25.99;27.73;99932.66;12224469;19;20010;-78
2023/05/16 14:15:51;;;;;;;3.85;1.15;;;;;;;23.93;27.97;99922.25;12199193;19;20353;-80
2023/05/16 14:19:56;;;;;;;3.75;1.10;;;;;;;22.26;28.53;99922.56;12223646;19;20023;-80
2023/05/16 14:23:58;;;;;;;5.05;1.52;;;;;;;23.90;27.74;99922.09;12223541;19;20450;-80
2023/05/16 14:28:00;;;;;;;4.63;1.00;;;;;;;23.14;28.59;99934.75;12201056;19;20041;-78
2023/05/16 14:32:02;;;;;;;4.00;0.93;;;;;;;22.45;31.10;99925.06;12220361;19;20471;-78
2023/05/16 14:36:04;;;;;;;7.05;1.40;;;;;;;24.66;27.46;99910.81;12217224;19;20014;-80
2023/05/16 14:40:10;;;;;;;3.67;1.27;;;;;;;25.33;26.55;99925.03;12195020;19;20010;-80
2023/05/16 14:44:11;;;;;;;5.10;1.10;;;;;;;24.34;26.38;99926.38;12214896;19;20011;-80
2023/05/16 14:48:13;;;;;;;5.20;1.77;;;;;;;22.24;29.31;99922.03;12213834;19;20475;-79
2023/05/16 14:52:15;;;;;;;5.70;1.20;;;;;;;20.65;31.09;99914.03;12194672;19;20345;-80
2023/05/16 14:56:20;;;;;;;5.28;0.90;;;;;;;20.08;31.78;99915.50;12217529;19;20011;-80
2023/05/16 15:00:23;;;;;;;;;;;;;;;20.24;32.52;99919.66;12214970;19;20014;-78
2023/05/16 15:04:31;;;;;;;4.18;1.15;;;;;;;21.39;31.08;99913.69;12193111;19;19915;-80
2023/05/16 15:08:34;;;;;;;6.82;1.42;;;;;;;20.43;31.43;99928.75;12219062;19;20002;-80
2023/05/16 15:12:39;;;;;;;8.38;3.28;;;;;;;19.21;34.14;99917.06;12195587;19;20827;-80
2023/05/16 15:16:41;;;;;;;4.85;1.20;;;;;;;18.49;35.38;99937.66;12208700;19;20010;-78
2023/05/16 15:20:44;;;;;;;3.60;1.05;;;;;;;18.06;34.83;99929.28;12227109;19;20018;-79
2023/05/16 15:24:46;;;;;;;4.65;1.38;;;;;;;17.77;35.13;99934.88;12207302;19;20031;-82
2023/05/16 15:28:51;;;;;;;6.40;0.80;;;;;;;17.54;34.57;99933.69;12226348;19;20055;-83
2023/05/16 15:32:56;;;;;;;3.72;0.90;;;;;;;17.40;35.51;99919.63;12225738;19;20057;-81
2023/05/16 15:36:58;;;;;;;4.00;1.00;;;;;;;17.62;35.20;99930.28;12204175;19;20037;-80
2023/05/16 15:40:59;;;;;;;3.30;0.77;;;;;;;17.73;34.77;99931.84;12229053;19;20027;-79
2023/05/16 15:45:18;;;;;;;8.63;2.83;;;;;;;17.40;34.68;99929.91;12222562;19;20021;-80
2023/05/16 15:49:22;;;;;;;3.78;1.35;;;;;;;17.30;35.33;99939.19;12225622;19;20044;-81
2023/05/16 15:53:38;;;;;;;3.75;0.93;;;;;;;17.20;36.10;99933.72;12259296;19;20066;-82
2023/05/16 15:57:50;;;;;;;7.55;1.00;;;;;;;17.06;36.29;99936.31;12213496;19;20017;-80
2023/05/16 16:01:57;;;;;;;4.00;1.10;;;;;;;16.73;35.92;99930.41;12228367;19;20010;-79
2023/05/16 16:05:59;;;;;;;2.25;0.70;;;;;;;16.78;36.23;99927.63;12226980;19;20010;-80
2023/05/16 16:10:02;;;;;;;5.63;0.82;;;;;;;16.81;36.04;99929.84;12208436;19;20002;-80
2023/05/16 16:14:03;;;;;;;3.30;0.70;;;;;;;16.83;36.58;99933.13;12238102;19;20480;-80
2023/05/16 16:18:07;;;;;;;5.00;1.10;;;;;;;16.49;36.65;99937.78;12223804;19;20018;-80
2023/05/16 16:22:09;;;;;;;4.93;1.00;;;;;;;16.51;36.84;99935.53;12197497;19;20019;-80
2023/05/16 16:26:11;;;;;;;3.67;1.20;;;;;;;16.60;36.30;99931.03;12219310;19;20315;-80
2023/05/16 16:30:15;;;;;;;3.80;1.73;;;;;;;16.64;35.79;99929.34;12224979;19;20011;-81
2023/05/16 16:34:20;;;;;;;3.00;0.90;;;;;;;16.51;36.13;99935.53;12201512;19;20022;-80
2023/05/16 16:38:23;;;;;;;4.57;0.80;;;;;;;16.49;36.00;99948.91;12225910;19;20011;-80
2023/05/16 16:42:29;;;;;;;5.18;1.50;;;;;;;16.21;36.20;99940.13;12219142;19;20010;-79
2023/05/16 16:46:31;;;;;;;4.47;0.80;;;;;;;15.89;36.77;99935.78;12199248;19;20026;-80
2023/05/16 16:50:33;;;;;;;2.67;0.80;;;;;;;15.91;37.15;99930.78;12231718;19;20003;-79
2023/05/16 16:54:36;;;;;;;2.72;0.70;;;;;;;15.93;36.96;99934.09;12205625;19;20015;-80
2023/05/16 16:58:37;;;;;;;6.40;1.23;;;;;;;15.73;37.57;99939.69;12222648;19;20010;-79
2023/05/16 17:02:39;;;;;;;4.40;1.25;;;;;;;15.69;35.82;99949.72;12221660;19;20031;-79
2023/05/16 17:06:50;;;;;;;5.20;0.77;;;;;;;15.73;36.08;99945.25;12207613;19;20011;-81
2023/05/16 17:10:54;;;;;;;3.80;0.80;;;;;;;15.48;37.11;99941.38;12222811;19;20239;-79
2023/05/16 17:14:56;;;;;;;4.55;0.90;;;;;;;15.38;38.17;99944.19;12215793;19;20027;-79
2023/05/16 17:18:58;;;;;;;3.47;1.13;;;;;;;15.59;37.05;99950.53;12197275;19;20570;-78
2023/05/16 17:23:01;;;;;;;2.47;0.75;;;;;;;15.55;37.44;99954.13;12213357;19;20357;-81
2023/05/16 17:27:03;;;;;;;4.13;0.70;;;;;;;15.36;37.46;99960.28;12221213;19;20017;-80
2023/05/16 17:31:05;;;;;;;5.80;1.20;;;;;;;15.20;38.24;99969.69;12201574;19;20014;-79
2023/05/16 17:35:08;;;;;;;2.72;0.85;;;;;;;15.18;38.50;99961.66;12217063;19;20002;-79
2023/05/16 17:39:10;;;;;;;2.17;0.50;;;;;;;15.14;39.06;99960.56;12223534;19;20044;-79
2023/05/16 17:43:12;;;;;;;4.60;0.77;;;;;;;15.20;38.47;99962.22;12195217;19;20011;-80
2023/05/16 17:47:15;;;;;;;3.47;0.80;;;;;;;15.14;39.60;99968.03;12222139;19;20069;-81
2023/05/16 17:51:17;;;;;;;4.60;0.80;;;;;;;15.21;38.79;99976.94;12219733;19;20011;-81
2023/05/16 17:55:19;;;;;;;2.25;0.90;;;;;;;15.38;38.65;99976.66;12197449;19;20010;-80
2023/05/16 17:59:21;;;;;;;;;;;;;;;15.22;39.43;99984.13;12228985;19;20007;-81
2023/05/16 18:03:23;;;;;;;9.60;2.72;;;;;;;15.04;40.37;99991.06;12216141;19;19938;-78
2023/05/16 18:07:25;;;;;;;7.00;1.42;;;;;;;14.72;41.09;99989.34;12190952;19;20015;-78
2023/05/16 18:11:27;;;;;;;4.80;1.23;;;;;;;14.62;41.07;99992.06;12211956;19;20034;-79
2023/05/16 18:15:29;;;;;;;2.30;0.80;;;;;;;14.51;42.06;100005.03;12207540;19;20015;-79
2023/05/16 18:19:31;;;;;;;1.65;0.80;;;;;;;14.42;42.76;100008.59;12189584;19;20544;-79
2023/05/16 18:23:33;;;;;;;2.72;1.08;;;;;;;14.32;43.31;100012.97;12215050;19;20069;-80
2023/05/16 18:27:37;;;;;;;4.18;1.63;;;;;;;14.30;44.19;100015.19;12195126;19;20478;-81
2023/05/16 18:31:41;;;;;;;2.90;0.80;;;;;;;14.25;43.55;100004.09;12219049;19;20122;-81
2023/05/16 18:35:44;;;;;;;2.80;0.95;;;;;;;14.21;43.74;100007.66;12213684;19;20471;-80
2023/05/16 18:39:47;;;;;;;3.10;1.05;;;;;;;14.06;43.90;100012.00;12192832;19;20020;-79